Time;durP1;ratioP1;P1;durP2;ratioP2;P2;SDS_P1;SDS_P2;PMS_P1;PMS_P2;Temp;Humidity;BMP_temperature;BMP_pressure;BME280_temperature;BME280_humidity;BME280_pressure;Samples;Min_cycle;Max_cycle;Signal;HPM_P1;HPM_P2
2023/11/14 00:00:28;;;;;;;15.90;4.70;;;;;;;6.66;97.90;98631.27;110330;1276;22452;-77
2023/11/14 00:03:18;;;;;;;13.70;4.60;;;;;;;6.67;97.83;98632.38;110241;1273;22214;-75
2023/11/14 00:05:46;;;;;;;15.40;5.20;;;;;;;6.67;97.90;98643.66;110316;1276;23337;-75
2023/11/14 00:08:16;;;;;;;13.90;4.80;;;;;;;6.67;97.82;98641.35;110316;1273;22214;-75
2023/11/14 00:10:46;;;;;;;13.80;4.50;;;;;;;6.68;97.86;98643.83;110268;1270;22226;-76
2023/11/14 00:13:17;;;;;;;16.40;4.70;;;;;;;6.69;97.85;98641.36;110304;1276;22160;-77
2023/11/14 00:16:06;;;;;;;13.90;4.10;;;;;;;6.72;97.90;98635.75;106185;1276;5410724;-75
2023/11/14 00:18:35;;;;;;;15.40;5.60;;;;;;;6.76;98.04;98631.85;110209;1275;22928;-78
2023/11/14 00:21:05;;;;;;;15.30;5.70;;;;;;;6.77;98.17;98638.26;110331;1276;22170;-76
2023/11/14 00:23:33;;;;;;;18.40;6.30;;;;;;;6.79;98.01;98647.15;110317;1277;23235;-75
2023/11/14 00:26:03;;;;;;;16.90;5.80;;;;;;;6.82;98.04;98649.14;110299;1276;23431;-75
2023/11/14 00:28:31;;;;;;;11.70;4.50;;;;;;;6.83;97.70;98644.21;110315;1276;22226;-76
2023/11/14 00:31:01;;;;;;;19.60;6.50;;;;;;;6.84;97.65;98644.42;110307;1276;22203;-76
2023/11/14 00:33:30;;;;;;;17.10;6.80;;;;;;;6.84;97.60;98662.44;110296;1270;22178;-75
2023/11/14 00:35:59;;;;;;;17.90;6.10;;;;;;;6.84;97.54;98669.50;110334;1269;22214;-75
2023/11/14 00:38:28;;;;;;;19.50;6.90;;;;;;;6.84;97.18;98665.85;110313;1276;22365;-75
2023/11/14 00:40:56;;;;;;;16.80;6.70;;;;;;;6.84;96.95;98668.79;110344;1277;22394;-75
2023/11/14 00:43:25;;;;;;;16.00;6.70;;;;;;;6.85;96.63;98678.52;110319;1276;22267;-76
2023/11/14 00:45:54;;;;;;;18.80;6.70;;;;;;;6.85;96.54;98683.83;110312;1273;22244;-75
2023/11/14 00:48:22;;;;;;;20.60;9.40;;;;;;;6.84;96.45;98689.25;110304;1276;22199;-75
2023/11/14 00:50:51;;;;;;;24.60;10.50;;;;;;;6.84;96.32;98691.58;110305;1273;22164;-77
2023/11/14 00:53:21;;;;;;;23.00;9.60;;;;;;;6.81;96.16;98687.46;110296;1274;22348;-76
2023/11/14 00:55:50;;;;;;;26.00;11.10;;;;;;;6.78;95.87;98686.43;110313;1269;22204;-76
2023/11/14 00:58:18;;;;;;;23.50;10.00;;;;;;;6.75;95.79;98688.63;110301;1277;22498;-75
2023/11/14 01:00:47;;;;;;;23.20;10.40;;;;;;;6.73;95.76;98693.99;110308;1276;22157;-76
2023/11/14 01:03:15;;;;;;;23.20;10.20;;;;;;;6.69;95.63;98702.17;110337;1273;22313;-76
2023/11/14 01:05:46;;;;;;;23.10;9.70;;;;;;;6.65;95.51;98707.90;110311;1276;23289;-76
2023/11/14 01:08:14;;;;;;;22.70;8.80;;;;;;;6.59;95.37;98713.13;110297;1277;22423;-75
2023/11/14 01:10:44;;;;;;;21.30;7.50;;;;;;;6.55;95.33;98714.43;110316;1273;22462;-78
2023/11/14 01:13:13;;;;;;;21.10;8.40;;;;;;;6.52;95.35;98714.11;110310;1276;22924;-75
2023/11/14 01:16:02;;;;;;;17.90;6.20;;;;;;;6.50;95.85;98720.39;110315;1273;22156;-76
2023/11/14 01:18:31;;;;;;;17.30;5.80;;;;;;;6.48;95.69;98723.48;110292;1270;23184;-77
2023/11/14 01:21:00;;;;;;;16.90;4.70;;;;;;;6.46;95.86;98731.52;110319;1274;22231;-77
2023/11/14 01:23:52;;;;;;;14.20;3.50;;;;;;;6.44;96.10;98730.70;110349;1277;22178;-74
2023/11/14 01:26:21;;;;;;;7.20;1.80;;;;;;;6.41;96.71;98736.92;110343;1276;22323;-75
2023/11/14 01:28:50;;;;;;;7.70;1.60;;;;;;;6.42;97.63;98742.42;110307;1270;22268;-77
2023/11/14 01:31:21;;;;;;;6.50;1.30;;;;;;;6.46;98.07;98752.20;110289;1276;23326;-76
2023/11/14 01:33:50;;;;;;;7.30;0.90;;;;;;;6.49;98.32;98746.23;110292;1270;22950;-77
2023/11/14 01:36:18;;;;;;;5.00;0.80;;;;;;;6.54;99.17;98753.30;110322;1277;23034;-75
2023/11/14 01:38:47;;;;;;;3.00;0.60;;;;;;;6.65;100.00;98755.64;110302;1277;22196;-76
2023/11/14 01:41:16;;;;;;;5.20;0.50;;;;;;;6.80;100.00;98759.17;110322;1264;22219;-77
2023/11/14 01:43:45;;;;;;;4.10;0.50;;;;;;;6.92;100.00;98758.33;110275;1262;22211;-76
2023/11/14 01:46:16;;;;;;;3.10;0.50;;;;;;;7.04;100.00;98754.25;110275;1277;22891;-75
2023/11/14 01:48:43;;;;;;;;;;;;;;;7.16;100.00;98753.56;110337;1277;23349;-76
2023/11/14 01:51:12;;;;;;;3.90;0.60;;;;;;;7.31;100.00;98757.21;110309;1277;22275;-77
2023/11/14 01:53:41;;;;;;;7.30;0.60;;;;;;;7.45;100.00;98747.23;110307;1277;22281;-75
2023/11/14 01:56:10;;;;;;;5.70;0.60;;;;;;;7.58;100.00;98749.55;110317;1277;22491;-75
2023/11/14 01:58:39;;;;;;;4.40;0.60;;;;;;;7.71;100.00;98747.86;110186;1277;22239;-75
2023/11/14 02:01:08;;;;;;;3.40;0.70;;;;;;;7.81;100.00;98748.33;110318;1277;22339;-75
2023/11/14 02:03:37;;;;;;;2.40;0.50;;;;;;;7.91;100.00;98751.98;110296;1269;22159;-76
2023/11/14 02:06:07;;;;;;;2.70;0.40;;;;;;;8.02;100.00;98757.64;110303;1269;22212;-75
2023/11/14 02:08:37;;;;;;;8.30;0.80;;;;;;;8.12;100.00;98764.11;110315;1276;22236;-76
2023/11/14 02:11:06;;;;;;;5.00;0.50;;;;;;;8.21;100.00;98760.00;110316;1277;22136;-75
2023/11/14 02:13:35;;;;;;;4.20;0.60;;;;;;;8.30;100.00;98765.23;110297;1273;22207;-76
2023/11/14 02:16:06;;;;;;;5.70;0.70;;;;;;;8.39;100.00;98766.63;110327;1269;23092;-77
2023/11/14 02:18:34;;;;;;;5.70;0.80;;;;;;;8.47;100.00;98774.51;110336;1276;22478;-78
2023/11/14 02:21:03;;;;;;;6.10;0.60;;;;;;;8.54;100.00;98782.17;110306;1276;23125;-77
2023/11/14 02:23:36;;;;;;;7.90;0.70;;;;;;;8.59;100.00;98785.98;110304;1276;22247;-75
2023/11/14 02:26:05;;;;;;;5.50;0.70;;;;;;;8.62;100.00;98789.02;110326;1276;22425;-75
2023/11/14 02:28:34;;;;;;;5.60;0.70;;;;;;;8.64;100.00;98786.77;110323;1274;23385;-76
2023/11/14 02:31:03;;;;;;;4.90;0.80;;;;;;;8.66;100.00;98785.85;110337;1269;22365;-75
2023/11/14 02:33:33;;;;;;;5.00;0.50;;;;;;;8.67;100.00;98779.18;110315;1276;22209;-75
2023/11/14 02:36:02;;;;;;;9.30;1.30;;;;;;;8.67;100.00;98780.49;110316;1277;22156;-75
2023/11/14 02:38:31;;;;;;;9.10;0.80;;;;;;;8.68;100.00;98787.02;110313;1277;23675;-75
2023/11/14 02:41:00;;;;;;;5.60;0.60;;;;;;;8.70;100.00;98798.31;110315;1276;22448;-75
2023/11/14 02:43:28;;;;;;;5.80;0.70;;;;;;;8.74;100.00;98812.58;110333;1276;23486;-75
2023/11/14 02:45:57;;;;;;;6.00;0.40;;;;;;;8.78;100.00;98823.88;110330;1277;22454;-75
2023/11/14 02:48:25;;;;;;;8.90;0.60;;;;;;;8.80;100.00;98823.58;108834;1267;22533;-76
2023/11/14 02:50:55;;;;;;;5.90;0.50;;;;;;;8.82;100.00;98825.26;107420;1276;25358;-75
2023/11/14 02:53:24;;;;;;;7.90;0.80;;;;;;;8.83;100.00;98823.25;107275;1276;24708;-74
2023/11/14 02:55:53;;;;;;;5.00;0.80;;;;;;;8.83;100.00;98823.66;107258;1269;22527;-75
2023/11/14 02:58:21;;;;;;;7.40;0.80;;;;;;;8.84;100.00;98830.58;107329;1277;24259;-76
2023/11/14 03:00:50;;;;;;;7.30;0.90;;;;;;;8.83;100.00;98828.66;107339;1277;23477;-75
2023/11/14 03:03:20;;;;;;;5.90;0.80;;;;;;;8.83;100.00;98830.13;107443;1262;24504;-76
2023/11/14 03:05:48;;;;;;;8.40;0.80;;;;;;;8.83;100.00;98833.21;107375;1273;24951;-75
2023/11/14 03:08:17;;;;;;;10.30;0.80;;;;;;;8.82;100.00;98831.13;107360;1273;26357;-74
2023/11/14 03:10:46;;;;;;;6.20;1.10;;;;;;;8.82;100.00;98827.73;107449;1265;22968;-75
2023/11/14 03:13:15;;;;;;;9.80;0.80;;;;;;;8.81;100.00;98835.48;107335;1277;23323;-74
2023/11/14 03:15:44;;;;;;;8.20;0.70;;;;;;;8.80;100.00;98835.73;107360;1276;22543;-75
2023/11/14 03:18:12;;;;;;;11.00;0.80;;;;;;;8.80;100.00;98838.02;107305;1277;22553;-76
2023/11/14 03:20:41;;;;;;;7.00;0.80;;;;;;;8.80;100.00;98834.62;107391;1275;25501;-75
2023/11/14 03:23:10;;;;;;;4.00;0.90;;;;;;;8.81;100.00;98828.19;107439;1277;22573;-77
2023/11/14 03:25:39;;;;;;;5.90;0.90;;;;;;;8.83;100.00;98833.52;110330;1272;22246;-78
2023/11/14 03:28:08;;;;;;;11.20;1.00;;;;;;;8.84;100.00;98831.79;110365;1269;22288;-75
2023/11/14 03:30:36;;;;;;;6.40;0.80;;;;;;;8.84;100.00;98833.77;110318;1276;22198;-75
2023/11/14 03:33:05;;;;;;;5.10;0.50;;;;;;;8.86;100.00;98839.09;110324;1276;22167;-76
2023/11/14 03:35:33;;;;;;;4.10;0.70;;;;;;;8.87;100.00;98837.63;110343;1276;22186;-75
2023/11/14 03:38:02;;;;;;;7.90;0.80;;;;;;;8.90;100.00;98842.29;110314;1276;22223;-77
2023/11/14 03:40:31;;;;;;;7.20;0.70;;;;;;;8.93;100.00;98842.05;110317;1272;22352;-75
2023/11/14 03:42:59;;;;;;;7.90;0.60;;;;;;;8.96;100.00;98844.27;110292;1276;22344;-76
2023/11/14 03:45:28;;;;;;;7.80;1.10;;;;;;;8.98;100.00;98849.09;110320;1276;22165;-76
2023/11/14 03:47:57;;;;;;;12.10;0.80;;;;;;;8.99;100.00;98854.40;110335;1276;22595;-76
2023/11/14 03:50:25;;;;;;;5.50;0.70;;;;;;;9.02;100.00;98855.52;110322;1274;22397;-76
2023/11/14 03:52:53;;;;;;;10.10;1.10;;;;;;;9.03;100.00;98853.75;110161;1277;22159;-76
2023/11/14 03:55:22;;;;;;;4.80;0.70;;;;;;;9.05;100.00;98856.21;110305;1272;22791;-77
2023/11/14 03:57:51;;;;;;;4.10;0.50;;;;;;;9.08;100.00;98862.18;110338;1269;22285;-77
2023/11/14 04:00:20;;;;;;;4.70;0.60;;;;;;;9.11;100.00;98866.84;110323;1262;22236;-76
2023/11/14 04:02:48;;;;;;;5.20;0.80;;;;;;;9.14;100.00;98865.08;110335;1276;22822;-77
2023/11/14 04:05:17;;;;;;;8.20;0.70;;;;;;;9.17;100.00;98867.77;110321;1276;22261;-75
2023/11/14 04:07:46;;;;;;;5.90;0.60;;;;;;;9.20;99.99;98870.63;110331;1273;22263;-75
2023/11/14 04:10:15;;;;;;;9.80;0.70;;;;;;;9.22;99.79;98876.39;110365;1270;22238;-76
2023/11/14 04:12:44;;;;;;;6.50;0.60;;;;;;;9.23;99.76;98881.45;110340;1272;22318;-76
2023/11/14 04:15:13;;;;;;;9.20;0.90;;;;;;;9.24;99.34;98886.63;110350;1271;22502;-75
2023/11/14 04:17:42;;;;;;;5.00;1.00;;;;;;;9.27;99.10;98887.23;110354;1276;22939;-76
2023/11/14 04:20:12;;;;;;;8.50;0.80;;;;;;;9.31;98.90;98885.77;110350;1265;22268;-76
2023/11/14 04:22:41;;;;;;;4.30;0.50;;;;;;;9.33;98.65;98886.85;110329;1276;22203;-76
2023/11/14 04:25:10;;;;;;;9.30;0.80;;;;;;;9.33;98.31;98890.23;110330;1276;22231;-75
2023/11/14 04:27:39;;;;;;;9.10;0.60;;;;;;;9.32;98.20;98891.26;110348;1273;22219;-78
2023/11/14 04:30:10;;;;;;;8.80;0.80;;;;;;;9.31;97.89;98890.70;110316;1273;22238;-75
2023/11/14 04:32:38;;;;;;;8.40;0.80;;;;;;;9.30;97.66;98892.61;110297;1276;22208;-75
2023/11/14 04:35:09;;;;;;;7.70;0.80;;;;;;;9.28;97.48;98893.08;110350;1265;22201;-79
2023/11/14 04:37:38;;;;;;;5.60;0.70;;;;;;;9.26;97.15;98899.48;110236;1277;22280;-76
2023/11/14 04:40:09;;;;;;;4.90;0.60;;;;;;;9.24;96.75;98899.13;110244;1269;22351;-77
2023/11/14 04:42:38;;;;;;;3.90;0.70;;;;;;;9.23;96.77;98899.78;110340;1276;23495;-76
2023/11/14 04:45:08;;;;;;;7.80;0.50;;;;;;;9.20;96.68;98906.56;110336;1277;22361;-75
2023/11/14 04:47:36;;;;;;;;;;;;;;;9.16;96.39;98909.88;110360;1274;22450;-77
2023/11/14 04:50:06;;;;;;;5.10;0.40;;;;;;;9.11;96.30;98912.55;110314;1276;22234;-74
2023/11/14 04:52:36;;;;;;;7.30;0.70;;;;;;;9.07;96.07;98914.11;110327;1276;23185;-75
2023/11/14 04:55:06;;;;;;;7.40;0.70;;;;;;;9.02;96.03;98916.98;110272;1270;22102;-75
2023/11/14 04:57:35;;;;;;;11.80;0.80;;;;;;;8.99;96.16;98920.45;110277;1275;23420;-76
2023/11/14 05:00:04;;;;;;;6.60;0.60;;;;;;;8.95;96.00;98927.42;110240;1272;22395;-76
2023/11/14 05:02:34;;;;;;;4.70;0.70;;;;;;;8.91;96.03;98928.98;110288;1266;22050;-75
2023/11/14 05:05:04;;;;;;;10.40;0.90;;;;;;;8.87;95.81;98933.36;110237;1271;22337;-75
2023/11/14 05:07:32;;;;;;;7.90;0.70;;;;;;;8.84;95.86;98938.81;110248;1277;22052;-75
2023/11/14 05:10:01;;;;;;;5.90;0.80;;;;;;;8.81;95.97;98939.70;110272;1273;22929;-75
2023/11/14 05:12:30;;;;;;;8.40;0.80;;;;;;;8.80;95.92;98944.60;110225;1277;23011;-75
2023/11/14 05:14:58;;;;;;;5.00;0.70;;;;;;;8.77;96.04;98948.23;110158;1270;22279;-75
2023/11/14 05:17:27;;;;;;;10.20;0.90;;;;;;;8.78;96.02;98955.36;110223;1270;22396;-74
2023/11/14 05:19:57;;;;;;;10.50;0.80;;;;;;;8.78;96.31;98959.11;110266;1275;22229;-76
2023/11/14 05:22:25;;;;;;;11.40;1.20;;;;;;;8.77;96.12;98963.66;110260;1270;22826;-75
2023/11/14 05:24:54;;;;;;;12.20;0.90;;;;;;;8.77;96.12;98964.83;110090;1268;22209;-75
2023/11/14 05:27:23;;;;;;;11.10;1.00;;;;;;;8.76;96.32;98970.19;110214;1277;22234;-76
2023/11/14 05:29:52;;;;;;;12.10;1.00;;;;;;;8.76;96.36;98970.08;110189;1272;22190;-78
2023/11/14 05:32:21;;;;;;;5.90;0.80;;;;;;;8.75;96.42;98970.58;110280;1276;22324;-74
2023/11/14 05:34:50;;;;;;;10.90;1.70;;;;;;;8.75;96.38;98969.41;110093;1274;22326;-76
2023/11/14 05:37:18;;;;;;;7.50;0.90;;;;;;;8.75;96.29;98967.48;110234;1277;22232;-75
2023/11/14 05:39:47;;;;;;;10.80;1.20;;;;;;;8.74;96.11;98963.95;110297;1273;22152;-74
2023/11/14 05:42:16;;;;;;;12.00;1.40;;;;;;;8.74;96.22;98960.61;110298;1272;22377;-75
2023/11/14 05:44:45;;;;;;;9.50;1.00;;;;;;;8.74;96.22;98959.75;110230;1277;22432;-77
2023/11/14 05:47:14;;;;;;;9.40;1.20;;;;;;;8.73;96.05;98958.13;110266;1265;22399;-75
2023/11/14 05:49:43;;;;;;;6.80;0.90;;;;;;;8.73;96.07;98958.07;110342;1277;22800;-76
2023/11/14 05:52:12;;;;;;;11.60;1.00;;;;;;;8.73;95.89;98954.84;110318;1271;22200;-77
2023/11/14 05:54:41;;;;;;;11.60;1.00;;;;;;;8.73;95.59;98960.80;110312;1273;22166;-76
2023/11/14 05:57:09;;;;;;;6.20;0.80;;;;;;;8.72;95.45;98952.91;110257;1277;22189;-75
2023/11/14 05:59:39;;;;;;;4.40;0.60;;;;;;;8.69;95.05;98950.88;110348;1277;23002;-77
2023/11/14 06:02:09;;;;;;;7.30;0.70;;;;;;;8.68;95.14;98954.60;110326;1277;22443;-77
2023/11/14 06:04:37;;;;;;;;;;;;;;;8.67;95.04;98966.50;110239;1273;22979;-77
2023/11/14 06:07:06;;;;;;;7.20;0.80;;;;;;;8.64;94.86;98971.13;110357;1262;23107;-78
2023/11/14 06:09:35;;;;;;;9.50;1.40;;;;;;;8.61;94.72;98975.40;110364;1277;23092;-80
2023/11/14 06:12:06;;;;;;;10.20;1.00;;;;;;;8.60;94.62;98983.18;110294;1277;22358;-79
2023/11/14 06:14:35;;;;;;;8.30;1.00;;;;;;;8.58;94.52;98986.26;110323;1271;22924;-80
2023/11/14 06:17:08;;;;;;;11.60;1.00;;;;;;;8.57;94.56;98987.45;110370;1273;22989;-79
2023/11/14 06:20:00;;;;;;;6.60;0.90;;;;;;;8.55;94.30;98989.69;110293;1277;22178;-79
2023/11/14 06:22:29;;;;;;;8.10;1.20;;;;;;;8.53;94.08;98987.54;110147;1278;22415;-78
2023/11/14 06:24:59;;;;;;;9.30;0.80;;;;;;;8.51;93.92;98990.31;110271;1277;22350;-79
2023/11/14 06:27:28;;;;;;;11.00;1.10;;;;;;;8.49;93.76;98993.93;110315;1277;22150;-78
2023/11/14 06:29:58;;;;;;;8.50;0.70;;;;;;;8.47;93.61;99001.55;110353;1277;22462;-79
2023/11/14 06:32:28;;;;;;;8.10;0.80;;;;;;;8.44;93.50;99005.36;110294;1277;22208;-77
2023/11/14 06:34:59;;;;;;;8.60;0.80;;;;;;;8.42;93.39;99000.55;110191;1275;22346;-77
2023/11/14 06:37:28;;;;;;;9.60;0.80;;;;;;;8.40;93.28;98999.73;110367;1272;22834;-78
2023/11/14 06:39:58;;;;;;;8.00;0.90;;;;;;;8.39;93.14;99004.27;110326;1277;22384;-79
2023/11/14 06:42:36;;;;;;;7.00;0.70;;;;;;;8.36;93.24;99003.95;110299;1277;22269;-78
2023/11/14 06:45:10;;;;;;;9.80;0.90;;;;;;;8.34;93.14;99009.48;110218;1269;22255;-79
2023/11/14 06:47:40;;;;;;;7.00;0.70;;;;;;;8.32;93.03;99007.70;110263;1277;22529;-79
2023/11/14 06:50:13;;;;;;;7.60;0.90;;;;;;;8.31;92.90;99006.64;110342;1277;22084;-78
2023/11/14 06:52:42;;;;;;;10.20;1.10;;;;;;;8.30;93.12;99012.38;110292;1277;22274;-78
2023/11/14 06:55:12;;;;;;;15.30;1.10;;;;;;;8.29;93.03;99018.71;110367;1273;22211;-78
2023/11/14 06:57:42;;;;;;;7.50;0.70;;;;;;;8.30;93.06;99022.66;110320;1277;22284;-78
2023/11/14 07:00:15;;;;;;;10.90;0.90;;;;;;;8.30;92.95;99021.59;110237;1277;22233;-79
2023/11/14 07:02:45;;;;;;;4.40;0.60;;;;;;;8.31;93.08;99024.02;110250;1277;22142;-78
2023/11/14 07:05:14;;;;;;;6.00;0.70;;;;;;;8.31;93.04;99030.00;110293;1277;22375;-78
2023/11/14 07:07:54;;;;;;;5.30;0.70;;;;;;;8.34;92.90;99035.56;110320;1277;22906;-78
2023/11/14 07:10:25;;;;;;;8.90;1.00;;;;;;;8.39;93.19;99035.57;110231;1277;22255;-78
2023/11/14 07:12:54;;;;;;;8.80;0.70;;;;;;;8.44;93.27;99031.83;110298;1277;22177;-79
2023/11/14 07:15:24;;;;;;;8.50;1.10;;;;;;;8.49;93.13;99028.48;110290;1277;22230;-79
2023/11/14 07:17:53;;;;;;;7.10;0.80;;;;;;;8.55;93.18;99031.10;110261;1277;22902;-78
2023/11/14 07:20:23;;;;;;;10.30;1.20;;;;;;;8.59;92.92;99034.82;110352;1273;22206;-78
2023/11/14 07:23:02;;;;;;;10.80;0.70;;;;;;;8.62;92.49;99035.04;110277;1277;22381;-78
2023/11/14 07:25:34;;;;;;;7.20;0.80;;;;;;;8.63;92.43;99029.48;110321;1275;22867;-79
2023/11/14 07:28:03;;;;;;;13.80;1.30;;;;;;;8.63;92.48;99023.81;110256;1272;22179;-78
2023/11/14 07:30:33;;;;;;;5.70;0.90;;;;;;;8.63;92.39;99022.36;110317;1277;22262;-78
2023/11/14 07:33:06;;;;;;;7.60;0.70;;;;;;;8.63;92.42;99026.15;110273;1277;23128;-78
2023/11/14 07:35:37;;;;;;;8.00;0.90;;;;;;;8.63;92.42;99024.68;110337;1275;23302;-80
2023/11/14 07:38:06;;;;;;;10.60;1.00;;;;;;;8.64;92.55;99027.02;110380;1277;23175;-78
2023/11/14 07:40:37;;;;;;;6.00;0.80;;;;;;;8.65;92.49;99016.45;110162;1277;22181;-79
2023/11/14 07:43:06;;;;;;;7.30;1.10;;;;;;;8.67;92.57;99008.98;110224;1277;22806;-78
2023/11/14 07:45:36;;;;;;;8.70;1.70;;;;;;;8.68;92.64;99009.70;110321;1274;22017;-78
2023/11/14 07:48:07;;;;;;;9.40;1.00;;;;;;;8.70;92.55;99013.15;110212;1277;22241;-78
2023/11/14 07:50:36;;;;;;;6.50;0.80;;;;;;;8.71;92.63;99006.48;110295;1277;22273;-79
2023/11/14 07:53:09;;;;;;;8.30;1.70;;;;;;;8.74;92.67;99009.28;110294;1277;22158;-78
2023/11/14 07:55:40;;;;;;;9.40;0.70;;;;;;;8.76;92.26;99009.23;110269;1275;22184;-78
2023/11/14 07:58:08;;;;;;;5.00;0.90;;;;;;;8.79;92.40;99009.56;110208;1277;22213;-80
2023/11/14 08:00:38;;;;;;;6.30;0.80;;;;;;;8.84;92.38;99006.91;110254;1277;22226;-79
2023/11/14 08:03:08;;;;;;;10.10;0.90;;;;;;;8.88;92.25;99001.48;110368;1272;23035;-79
2023/11/14 08:05:41;;;;;;;5.30;0.60;;;;;;;8.92;92.17;99005.85;110332;1269;22418;-79
2023/11/14 08:08:30;;;;;;;10.50;1.30;;;;;;;8.98;92.01;98998.20;110311;1277;23252;-80
2023/11/14 08:11:02;;;;;;;6.50;1.00;;;;;;;9.05;91.72;98993.27;110348;1277;23099;-78
2023/11/14 08:13:32;;;;;;;8.20;0.70;;;;;;;9.13;91.58;98994.88;110380;1274;22230;-78
2023/11/14 08:16:01;;;;;;;6.40;0.90;;;;;;;9.22;91.49;99002.70;110372;1277;23070;-79
2023/11/14 08:18:30;;;;;;;6.90;0.70;;;;;;;9.31;91.69;99016.27;110302;1277;22226;-78
2023/11/14 08:21:00;;;;;;;8.30;0.70;;;;;;;9.39;91.74;99015.86;110134;1278;22358;-78
2023/11/14 08:23:29;;;;;;;12.70;1.00;;;;;;;9.49;91.58;99009.95;110310;1277;22390;-78
2023/11/14 08:25:58;;;;;;;;;;;;;;;9.56;91.32;99010.08;110300;1271;22408;-79
2023/11/14 08:28:28;;;;;;;9.00;0.70;;;;;;;9.60;91.37;99016.18;110427;1277;23740;-79
2023/11/14 08:30:57;;;;;;;7.20;0.90;;;;;;;9.63;91.37;99019.17;110382;1277;23088;-78
2023/11/14 08:33:26;;;;;;;6.90;0.90;;;;;;;9.67;91.03;99022.58;110273;1277;22209;-78
2023/11/14 08:35:55;;;;;;;7.30;0.90;;;;;;;9.71;91.07;99027.05;110363;1277;22971;-78
2023/11/14 08:38:27;;;;;;;5.40;0.60;;;;;;;9.75;90.87;99037.80;110293;1277;22235;-78
2023/11/14 08:40:56;;;;;;;7.60;0.80;;;;;;;9.83;89.95;99048.58;110336;1267;23212;-78
2023/11/14 08:43:26;;;;;;;10.30;1.00;;;;;;;9.94;89.75;99051.14;110383;1275;22209;-80
2023/11/14 08:46:11;;;;;;;8.30;1.00;;;;;;;10.05;89.13;99053.70;110285;1277;22353;-79
2023/11/14 08:48:39;;;;;;;12.00;1.10;;;;;;;10.16;88.97;99052.67;110378;1277;22153;-78
2023/11/14 08:51:10;;;;;;;5.70;0.90;;;;;;;10.28;88.76;99057.30;110399;1277;22302;-78
2023/11/14 08:53:39;;;;;;;7.80;0.80;;;;;;;10.40;88.17;99063.57;110198;1277;22186;-78
2023/11/14 08:56:15;;;;;;;13.90;1.10;;;;;;;10.49;87.79;99072.80;110164;1278;23002;-78
2023/11/14 08:58:46;;;;;;;9.60;1.10;;;;;;;10.57;87.40;99070.77;110278;1277;22194;-78
2023/11/14 09:01:14;;;;;;;9.50;0.70;;;;;;;10.63;87.16;99071.99;110345;1277;22983;-77
2023/11/14 09:03:52;;;;;;;8.40;1.20;;;;;;;10.66;87.21;99069.14;110323;1277;22795;-77
2023/11/14 09:06:24;;;;;;;7.00;0.90;;;;;;;10.68;86.84;99069.91;110422;1277;22168;-77
2023/11/14 09:08:53;;;;;;;9.40;1.70;;;;;;;10.69;86.26;99075.44;110231;1278;22425;-76
2023/11/14 09:11:25;;;;;;;8.90;0.80;;;;;;;10.71;86.45;99075.95;110272;1270;22231;-76
2023/11/14 09:14:05;;;;;;;11.50;1.20;;;;;;;10.75;86.09;99081.02;110311;1277;22169;-76
2023/11/14 09:16:56;;;;;;;10.10;1.00;;;;;;;10.81;85.70;99085.28;110359;1276;22203;-77
2023/11/14 09:19:26;;;;;;;9.60;0.90;;;;;;;10.86;86.30;99085.59;110269;1277;22187;-77
2023/11/14 09:22:00;;;;;;;12.30;1.10;;;;;;;10.90;86.26;99078.93;110359;1269;22233;-76
2023/11/14 09:24:50;;;;;;;10.60;1.00;;;;;;;10.93;85.99;99078.98;110317;1277;23089;-76
2023/11/14 09:27:20;;;;;;;7.20;1.00;;;;;;;10.97;86.24;99074.55;110202;1270;22199;-76
2023/11/14 09:29:49;;;;;;;11.00;1.10;;;;;;;10.99;85.90;99067.74;110287;1277;22195;-77
2023/11/14 09:32:27;;;;;;;;;;;;;;;11.02;85.68;99072.26;110267;1271;22457;-77
2023/11/14 09:35:22;;;;;;;8.70;1.10;;;;;;;11.05;85.77;99078.63;110185;1268;22192;-77
2023/11/14 09:37:54;;;;;;;13.50;1.70;;;;;;;11.07;85.51;99069.73;110324;1275;22187;-77
2023/11/14 09:40:28;;;;;;;13.70;1.40;;;;;;;11.12;85.28;99070.73;110287;1277;22224;-77
2023/11/14 09:43:27;;;;;;;14.30;1.60;;;;;;;11.15;84.57;99073.52;110273;1277;22238;-77
2023/11/14 09:46:20;;;;;;;10.80;1.40;;;;;;;11.18;84.70;99067.61;110254;1277;22227;-77
2023/11/14 09:49:04;;;;;;;6.10;0.70;;;;;;;11.20;83.28;99073.30;109928;1276;22443;-77
2023/11/14 09:51:38;;;;;;;12.50;1.20;;;;;;;11.23;83.63;99071.20;109953;1281;22426;-77
2023/11/14 09:54:13;;;;;;;9.40;1.20;;;;;;;11.25;83.59;99084.36;109918;1281;22243;-77
2023/11/14 09:57:31;;;;;;;8.70;1.00;;;;;;;11.28;83.58;99080.23;109925;1281;22201;-77
2023/11/14 10:00:38;;;;;;;11.10;0.90;;;;;;;11.30;83.35;99079.21;109834;1283;22906;-77
2023/11/14 10:04:12;;;;;;;12.40;1.30;;;;;;;11.31;82.47;99081.86;109807;1283;22224;-77
2023/11/14 10:07:30;;;;;;;9.70;1.10;;;;;;;11.33;82.39;99068.04;109625;1283;22319;-77
2023/11/14 10:10:26;;;;;;;8.40;0.90;;;;;;;11.35;82.23;99065.95;109853;1284;23049;-77
2023/11/14 10:12:59;;;;;;;7.10;0.90;;;;;;;11.38;82.43;99064.05;109828;1280;22229;-76
2023/11/14 10:15:31;;;;;;;10.60;1.00;;;;;;;11.41;82.17;99067.05;109830;1274;22749;-77
2023/11/14 10:18:32;;;;;;;9.30;0.90;;;;;;;11.44;81.80;99070.86;109931;1281;22298;-77
2023/11/14 10:21:53;;;;;;;6.30;1.30;;;;;;;11.46;82.02;99076.89;109952;1281;22914;-77
2023/11/14 10:24:44;;;;;;;13.30;1.30;;;;;;;11.50;82.05;99079.97;109998;1274;23678;-76
2023/11/14 10:27:39;;;;;;;8.70;1.00;;;;;;;11.53;81.31;99088.30;110147;1278;22204;-77
2023/11/14 10:30:22;;;;;;;6.70;0.70;;;;;;;11.54;80.67;99078.33;110308;1277;22222;-77
2023/11/14 10:33:38;;;;;;;11.40;1.30;;;;;;;11.56;81.16;99094.64;110376;1277;22220;-77
2023/11/14 10:36:28;;;;;;;8.70;1.00;;;;;;;11.57;80.98;99092.30;110000;1280;22200;-77
2023/11/14 10:39:06;;;;;;;8.60;0.90;;;;;;;11.58;80.61;99071.45;110049;1280;22440;-77
2023/11/14 10:42:16;;;;;;;6.40;0.70;;;;;;;11.57;80.51;99064.84;110022;1276;23173;-77
2023/11/14 10:45:28;;;;;;;12.40;1.20;;;;;;;11.59;80.46;99058.54;109905;1281;22731;-77
2023/11/14 10:48:24;;;;;;;5.90;0.80;;;;;;;11.58;80.38;99065.87;109672;1286;22888;-77
2023/11/14 10:51:28;;;;;;;7.30;0.70;;;;;;;11.58;80.12;99064.90;109684;1286;22298;-77
2023/11/14 10:54:18;;;;;;;10.70;0.90;;;;;;;11.57;80.06;99049.20;109625;1283;22221;-77
2023/11/14 10:57:30;;;;;;;8.50;1.20;;;;;;;11.57;79.61;99060.02;109536;1288;22218;-78
2023/11/14 11:01:22;;;;;;;6.90;1.40;;;;;;;11.57;79.80;99059.86;109389;1288;22666;-77
2023/11/14 11:04:52;;;;;;;5.00;0.80;;;;;;;11.57;79.69;99041.42;109488;1288;22217;-77
2023/11/14 11:07:41;;;;;;;12.70;1.30;;;;;;;11.57;79.96;99043.56;109756;1284;22223;-77
2023/11/14 11:10:33;;;;;;;6.90;0.70;;;;;;;11.57;79.79;99043.86;109663;1286;22297;-77
2023/11/14 11:13:24;;;;;;;5.70;0.90;;;;;;;11.57;79.55;99042.64;109699;1283;22436;-77
2023/11/14 11:17:03;;;;;;;12.50;0.90;;;;;;;11.59;79.51;99036.78;109705;1286;22194;-76
2023/11/14 11:20:22;;;;;;;11.20;1.60;;;;;;;11.61;79.23;99039.73;109413;1290;22248;-76
2023/11/14 11:23:37;;;;;;;9.50;1.50;;;;;;;11.65;79.33;99039.20;109507;1288;22262;-77
2023/11/14 11:27:39;;;;;;;12.60;1.30;;;;;;;11.71;79.42;99033.98;109363;1286;22449;-77
2023/11/14 11:31:11;;;;;;;7.50;1.00;;;;;;;11.79;79.19;99034.80;109329;1290;22183;-78
2023/11/14 11:33:46;;;;;;;15.10;1.50;;;;;;;11.82;78.64;99041.28;109337;1288;22327;-77
2023/11/14 11:37:23;;;;;;;7.70;0.90;;;;;;;11.84;78.54;99038.92;109290;1286;22208;-77
2023/11/14 11:40:36;;;;;;;8.40;0.90;;;;;;;11.84;78.27;99035.78;109666;1283;22215;-77
2023/11/14 11:44:01;;;;;;;11.00;1.20;;;;;;;11.81;77.29;99047.49;109668;1283;22205;-77
2023/11/14 11:47:03;;;;;;;4.70;1.00;;;;;;;11.80;78.18;99038.95;109823;1280;22218;-77
2023/11/14 11:50:48;;;;;;;7.50;0.90;;;;;;;11.77;78.15;99034.60;109773;1283;22258;-78
2023/11/14 11:54:18;;;;;;;7.90;1.10;;;;;;;11.73;77.97;99031.61;109688;1283;22207;-77
2023/11/14 11:57:53;;;;;;;9.40;0.90;;;;;;;11.71;77.93;99039.97;109628;1287;22283;-77
2023/11/14 12:00:52;;;;;;;6.20;0.80;;;;;;;11.69;77.64;99052.42;109533;1286;22247;-78
2023/11/14 12:04:02;;;;;;;8.90;1.60;;;;;;;11.67;77.88;99053.20;109313;1289;22301;-78
2023/11/14 12:07:35;;;;;;;8.00;1.40;;;;;;;11.65;77.44;99053.95;109480;1281;21823;-78
2023/11/14 12:10:47;;;;;;;8.60;0.90;;;;;;;11.64;77.48;99049.23;109484;1288;22203;-78